Time;durP1;ratioP1;P1;durP2;ratioP2;P2;SDS_P1;SDS_P2;PMS_P1;PMS_P2;Temp;Humidity;BMP_temperature;BMP_pressure;BME280_temperature;BME280_humidity;BME280_pressure;Samples;Min_cycle;Max_cycle;Signal;HPM_P1;HPM_P2
2022/10/20 00:01:21;;;;;;;9.68;8.45;;;8.10;99.90;;;;;;5020948;28;20021;-75
2022/10/20 00:03:48;;;;;;;9.07;8.13;;;8.10;99.90;;;;;;5024539;28;20109;-76
2022/10/20 00:06:23;;;;;;;10.48;8.60;;;8.20;99.90;;;;;;5028073;28;20514;-75
2022/10/20 00:08:49;;;;;;;10.52;8.93;;;8.20;99.90;;;;;;5024280;28;20085;-75
2022/10/20 00:11:17;;;;;;;12.75;8.57;;;8.20;99.90;;;;;;5019696;28;20479;-75
2022/10/20 00:13:45;;;;;;;10.75;8.43;;;8.20;99.90;;;;;;5023149;28;20383;-76
2022/10/20 00:16:11;;;;;;;10.23;8.18;;;8.20;99.90;;;;;;5027971;28;20149;-76
2022/10/20 00:18:38;;;;;;;9.60;8.60;;;8.10;99.90;;;;;;5024691;28;20053;-76
2022/10/20 00:21:12;;;;;;;9.15;8.25;;;8.10;99.90;;;;;;5016368;22;20129;-72
2022/10/20 00:23:37;;;;;;;9.68;8.77;;;8.10;99.90;;;;;;4994749;28;20531;-72
2022/10/20 00:26:10;;;;;;;12.88;8.23;;;8.10;99.90;;;;;;4994568;28;20038;-72
2022/10/20 00:28:36;;;;;;;9.27;8.38;;;8.10;99.90;;;;;;4981088;28;20030;-72
2022/10/20 00:31:03;;;;;;;9.82;8.82;;;8.10;99.90;;;;;;5002742;28;20022;-74
2022/10/20 00:33:28;;;;;;;10.23;8.60;;;8.10;99.90;;;;;;5007626;28;20079;-73
2022/10/20 00:35:58;;;;;;;13.43;8.60;;;8.10;99.90;;;;;;4993385;28;20396;-73
2022/10/20 00:38:23;;;;;;;10.05;8.80;;;8.00;99.90;;;;;;4993068;28;20088;-72
2022/10/20 00:40:49;;;;;;;10.55;9.00;;;8.10;99.90;;;;;;5029085;28;20551;-74
2022/10/20 00:43:16;;;;;;;9.70;8.75;;;8.00;99.90;;;;;;5000876;28;20028;-73
2022/10/20 00:45:44;;;;;;;10.23;8.60;;;8.00;99.90;;;;;;5006631;28;20033;-72
2022/10/20 00:48:17;;;;;;;11.70;8.73;;;8.10;99.90;;;;;;5008313;28;20112;-70
2022/10/20 00:50:49;;;;;;;10.35;9.45;;;8.10;99.90;;;;;;5003879;28;20036;-75
2022/10/20 00:53:16;;;;;;;11.13;8.75;;;8.00;99.90;;;;;;5010232;28;20022;-74
2022/10/20 00:55:46;;;;;;;9.52;8.55;;;8.00;99.90;;;;;;5013705;28;20028;-75
2022/10/20 00:58:12;;;;;;;9.95;8.85;;;8.00;99.90;;;;;;4995313;28;20030;-73
2022/10/20 01:00:40;;;;;;;9.20;8.30;;;8.00;99.90;;;;;;4994070;28;20085;-72
2022/10/20 01:03:11;;;;;;;15.30;9.00;;;8.00;99.90;;;;;;5011853;28;20080;-73
2022/10/20 01:05:37;;;;;;;10.60;9.23;;;7.90;99.90;;;;;;5001680;28;20026;-73
2022/10/20 01:08:03;;;;;;;10.13;9.02;;;7.90;99.90;;;;;;4998896;28;20040;-73
2022/10/20 01:10:37;;;;;;;10.43;9.27;;;7.90;99.90;;;;;;5013364;28;20022;-74
2022/10/20 01:13:11;;;;;;;9.57;8.38;;;7.90;99.90;;;;;;5000341;28;20022;-75
2022/10/20 01:16:02;;;;;;;10.30;9.30;;;7.90;99.90;;;;;;4999043;28;20057;-75
2022/10/20 01:18:42;;;;;;;10.00;9.00;;;7.90;99.90;;;;;;5002371;28;20022;-75
2022/10/20 01:21:26;;;;;;;10.05;9.05;;;8.00;99.90;;;;;;5006691;28;20571;-75
2022/10/20 01:24:21;;;;;;;10.23;9.05;;;8.00;99.90;;;;;;4993701;28;20031;-72
2022/10/20 01:27:25;;;;;;;11.05;9.07;;;8.00;99.90;;;;;;5005935;28;20029;-72
2022/10/20 01:29:53;;;;;;;10.32;9.30;;;8.00;99.90;;;;;;4996371;28;20454;-72
2022/10/20 01:32:45;;;;;;;11.88;9.00;;;8.00;99.90;;;;;;4995024;28;20030;-75
2022/10/20 01:35:37;;;;;;;11.75;9.35;;;8.00;99.90;;;;;;5001690;28;20015;-73
2022/10/20 01:38:05;;;;;;;10.48;9.27;;;7.90;99.90;;;;;;5005091;28;20055;-70
2022/10/20 01:40:41;;;;;;;10.35;8.90;;;7.90;99.90;;;;;;5006853;28;20415;-70
2022/10/20 01:43:10;;;;;;;11.98;8.77;;;7.90;99.90;;;;;;5005257;28;20030;-70
2022/10/20 01:45:40;;;;;;;11.75;9.23;;;7.90;99.90;;;;;;5000525;28;20026;-71
2022/10/20 01:48:08;;;;;;;11.02;9.23;;;7.90;99.90;;;;;;4999486;28;20030;-71
2022/10/20 01:50:35;;;;;;;11.77;9.13;;;7.90;99.90;;;;;;5012774;28;20026;-70
2022/10/20 01:53:02;;;;;;;11.13;8.85;;;7.90;99.90;;;;;;4999628;28;20023;-73
2022/10/20 01:55:28;;;;;;;10.55;9.23;;;7.90;99.90;;;;;;5004124;28;20061;-71
2022/10/20 01:58:22;;;;;;;10.43;9.38;;;7.90;99.90;;;;;;5005855;28;20064;-71
2022/10/20 02:00:51;;;;;;;9.98;8.98;;;7.90;99.90;;;;;;4991167;28;20034;-71
2022/10/20 02:03:45;;;;;;;10.70;9.50;;;7.90;99.90;;;;;;4991770;28;20026;-73
2022/10/20 02:06:14;;;;;;;10.60;8.75;;;7.90;99.90;;;;;;5002217;28;20049;-73
2022/10/20 02:08:45;;;;;;;10.93;8.88;;;8.00;99.90;;;;;;5001470;28;20034;-72
2022/10/20 02:11:41;;;;;;;10.68;8.95;;;7.90;99.90;;;;;;4999321;28;20033;-72
2022/10/20 02:14:10;;;;;;;10.35;9.30;;;8.00;99.90;;;;;;5011190;28;20030;-72
2022/10/20 02:16:41;;;;;;;11.57;8.77;;;8.00;99.90;;;;;;5003389;28;20058;-72
2022/10/20 02:19:09;;;;;;;10.40;9.50;;;7.90;99.90;;;;;;5005672;28;20109;-72
2022/10/20 02:21:35;;;;;;;14.45;10.40;;;7.90;99.90;;;;;;5002764;28;20030;-72
2022/10/20 02:24:05;;;;;;;10.60;9.43;;;7.90;99.90;;;;;;4999241;28;20503;-74
2022/10/20 02:26:31;;;;;;;10.68;9.57;;;7.90;99.90;;;;;;4999919;28;20057;-74
2022/10/20 02:29:02;;;;;;;11.88;10.05;;;7.80;99.90;;;;;;5005539;28;20097;-73
2022/10/20 02:31:28;;;;;;;10.45;9.15;;;7.80;99.90;;;;;;5004134;28;20076;-73
2022/10/20 02:33:55;;;;;;;10.82;9.55;;;7.90;99.90;;;;;;4999089;28;20018;-73
2022/10/20 02:36:26;;;;;;;10.50;9.40;;;7.90;99.90;;;;;;4999091;28;20026;-73
2022/10/20 02:38:51;;;;;;;9.82;8.88;;;7.90;99.90;;;;;;5004135;28;20403;-74
2022/10/20 02:41:17;;;;;;;10.63;9.48;;;8.00;99.90;;;;;;5004784;28;20026;-75
2022/10/20 02:43:42;;;;;;;10.82;9.25;;;8.00;99.90;;;;;;4999005;28;20033;-72
2022/10/20 02:46:08;;;;;;;11.65;9.43;;;7.90;99.90;;;;;;4999454;28;20495;-73
2022/10/20 02:48:34;;;;;;;10.00;8.88;;;8.00;99.90;;;;;;5004152;28;20090;-73
2022/10/20 02:51:00;;;;;;;12.52;9.20;;;8.00;99.90;;;;;;5017714;28;20165;-73
2022/10/20 02:53:25;;;;;;;10.68;8.73;;;8.00;99.90;;;;;;5011834;28;20511;-73
2022/10/20 02:55:51;;;;;;;9.40;8.30;;;8.00;99.90;;;;;;4999145;28;20313;-73
2022/10/20 02:58:16;;;;;;;11.07;8.18;;;8.00;99.90;;;;;;5012073;28;20075;-73
2022/10/20 03:00:42;;;;;;;9.75;8.75;;;8.00;99.90;;;;;;5000250;28;20022;-73
2022/10/20 03:03:08;;;;;;;10.23;8.70;;;7.90;99.90;;;;;;5002343;28;20022;-73
2022/10/20 03:05:38;;;;;;;12.38;8.60;;;7.90;99.90;;;;;;5005913;28;20483;-73
2022/10/20 03:08:03;;;;;;;10.15;8.93;;;7.90;99.90;;;;;;5003749;28;20022;-73
2022/10/20 03:10:29;;;;;;;12.40;9.20;;;7.80;99.90;;;;;;5006174;28;20049;-73
2022/10/20 03:12:54;;;;;;;10.85;8.95;;;7.70;99.90;;;;;;5002635;28;20364;-74
2022/10/20 03:15:20;;;;;;;12.70;9.75;;;7.50;99.90;;;;;;5006408;28;20503;-74
2022/10/20 03:17:45;;;;;;;11.63;9.85;;;7.60;99.90;;;;;;5011610;28;20036;-75
2022/10/20 03:20:11;;;;;;;11.60;9.50;;;7.60;99.90;;;;;;4998180;28;20408;-71
2022/10/20 03:22:36;;;;;;;10.98;9.57;;;7.60;99.90;;;;;;5001768;28;20033;-73
2022/10/20 03:25:02;;;;;;;10.85;9.73;;;7.50;99.90;;;;;;5010212;28;20079;-75
2022/10/20 03:27:28;;;;;;;10.93;9.60;;;7.50;99.90;;;;;;5004648;28;20022;-72
2022/10/20 03:29:53;;;;;;;13.13;10.02;;;7.50;99.90;;;;;;5006421;28;20045;-73
2022/10/20 03:32:19;;;;;;;11.45;9.88;;;7.60;99.90;;;;;;5002107;28;20021;-74
2022/10/20 03:34:44;;;;;;;11.23;10.05;;;7.60;99.90;;;;;;5006886;28;20109;-74
2022/10/20 03:37:10;;;;;;;10.75;9.32;;;7.60;99.90;;;;;;5011435;28;20101;-72
2022/10/20 03:39:35;;;;;;;9.73;8.75;;;7.50;99.90;;;;;;5009525;28;20160;-72
2022/10/20 03:42:01;;;;;;;11.15;9.52;;;7.60;99.90;;;;;;5004861;28;20108;-72
2022/10/20 03:44:26;;;;;;;10.70;9.60;;;7.50;99.90;;;;;;5006937;28;20103;-73
2022/10/20 03:46:52;;;;;;;11.18;9.90;;;7.60;99.90;;;;;;5011154;28;20042;-74
2022/10/20 03:49:18;;;;;;;11.30;9.88;;;7.60;99.90;;;;;;4998167;28;20018;-74
2022/10/20 03:51:43;;;;;;;12.38;9.27;;;7.60;99.90;;;;;;5009008;28;20021;-74
2022/10/20 03:54:09;;;;;;;11.95;9.93;;;7.60;99.90;;;;;;5007196;28;20671;-72
2022/10/20 03:56:34;;;;;;;10.70;9.60;;;7.60;99.90;;;;;;5006761;28;20407;-72
2022/10/20 03:59:00;;;;;;;9.95;8.90;;;7.60;99.90;;;;;;4996878;28;20038;-71
2022/10/20 04:01:34;;;;;;;10.98;9.60;;;7.50;99.90;;;;;;5000517;28;20026;-72
2022/10/20 04:04:00;;;;;;;10.10;9.15;;;7.50;99.90;;;;;;5001011;28;20041;-71
2022/10/20 04:06:26;;;;;;;9.93;8.95;;;7.50;99.90;;;;;;5008229;28;20030;-72
2022/10/20 04:08:51;;;;;;;10.02;8.93;;;7.50;99.90;;;;;;5006575;28;20541;-72
2022/10/20 04:11:17;;;;;;;11.60;9.15;;;7.50;99.90;;;;;;5001345;28;20053;-72
2022/10/20 04:13:42;;;;;;;11.10;9.98;;;7.60;99.90;;;;;;5003118;28;20029;-72
2022/10/20 04:16:08;;;;;;;13.75;10.13;;;7.50;99.90;;;;;;5007943;28;20038;-73
2022/10/20 04:18:33;;;;;;;11.23;9.25;;;7.50;99.90;;;;;;5006251;28;20056;-72
2022/10/20 04:20:59;;;;;;;12.02;9.48;;;7.50;99.90;;;;;;4995175;28;20045;-72
2022/10/20 04:23:25;;;;;;;10.50;9.52;;;7.50;99.90;;;;;;5004460;28;20034;-72
2022/10/20 04:25:50;;;;;;;11.82;9.65;;;7.40;99.90;;;;;;5001130;28;20029;-73
2022/10/20 04:28:17;;;;;;;11.38;9.13;;;7.40;99.90;;;;;;5003289;28;20030;-73
2022/10/20 04:30:44;;;;;;;10.32;9.32;;;7.40;99.90;;;;;;4999223;28;20022;-72
2022/10/20 04:33:11;;;;;;;11.88;9.27;;;7.40;99.90;;;;;;5001621;28;20044;-72
2022/10/20 04:35:37;;;;;;;10.25;9.10;;;7.40;99.90;;;;;;5007774;28;20100;-70
2022/10/20 04:38:03;;;;;;;10.52;9.43;;;7.40;99.90;;;;;;5005961;28;20491;-71
2022/10/20 04:40:29;;;;;;;11.63;9.38;;;7.40;99.90;;;;;;5000727;28;20030;-71
2022/10/20 04:42:54;;;;;;;10.48;8.77;;;7.40;99.90;;;;;;5002619;28;20034;-72
2022/10/20 04:45:20;;;;;;;10.88;9.77;;;7.30;99.90;;;;;;5007580;28;20035;-72
2022/10/20 04:47:45;;;;;;;10.75;8.90;;;7.40;99.90;;;;;;4992849;28;20036;-70
2022/10/20 04:50:11;;;;;;;10.85;9.18;;;7.30;99.90;;;;;;5002048;28;20026;-71
2022/10/20 04:52:37;;;;;;;11.60;9.18;;;7.30;99.90;;;;;;4993729;28;20026;-71
2022/10/20 04:55:02;;;;;;;11.45;9.15;;;7.30;99.90;;;;;;4994983;28;20026;-71
2022/10/20 04:57:28;;;;;;;13.15;9.73;;;7.20;99.90;;;;;;4993612;28;20030;-72
2022/10/20 04:59:53;;;;;;;15.55;9.32;;;7.20;99.90;;;;;;5005866;28;20019;-72
2022/10/20 05:02:19;;;;;;;18.00;10.63;;;7.20;99.90;;;;;;5005499;28;20092;-72
2022/10/20 05:04:45;;;;;;;9.93;8.90;;;7.20;99.90;;;;;;5000332;28;20044;-72
2022/10/20 05:07:11;;;;;;;11.15;9.68;;;7.10;99.90;;;;;;5002240;28;20065;-72
2022/10/20 05:09:36;;;;;;;12.40;9.30;;;7.10;99.90;;;;;;5005666;28;20062;-72
2022/10/20 05:12:02;;;;;;;10.88;9.77;;;7.10;99.90;;;;;;4992579;28;20369;-71
2022/10/20 05:14:28;;;;;;;11.75;9.70;;;7.10;99.90;;;;;;5006927;28;20038;-72
2022/10/20 05:16:54;;;;;;;11.60;9.25;;;7.00;99.90;;;;;;5004428;28;20498;-72
2022/10/20 05:19:19;;;;;;;10.35;8.93;;;7.00;99.90;;;;;;5007445;28;20073;-73
2022/10/20 05:21:45;;;;;;;11.13;9.38;;;7.00;99.90;;;;;;5003376;28;20119;-72
2022/10/20 05:24:13;;;;;;;10.05;8.98;;;7.00;99.90;;;;;;5000006;28;20040;-72
2022/10/20 05:26:39;;;;;;;12.05;9.07;;;7.00;99.90;;;;;;5001988;28;20168;-71
2022/10/20 05:29:07;;;;;;;10.15;9.18;;;7.00;99.90;;;;;;4993295;28;20056;-71
2022/10/20 05:31:38;;;;;;;12.18;9.30;;;6.90;99.90;;;;;;4993523;28;20380;-72
2022/10/20 05:34:03;;;;;;;9.88;8.60;;;6.80;99.90;;;;;;5006488;28;20027;-72
2022/10/20 05:36:29;;;;;;;10.32;9.18;;;6.90;99.90;;;;;;4993359;28;20444;-72
2022/10/20 05:38:55;;;;;;;12.77;9.93;;;6.80;99.90;;;;;;4997211;28;20026;-71
2022/10/20 05:41:23;;;;;;;10.25;9.25;;;6.90;99.90;;;;;;5001101;28;20113;-71
2022/10/20 05:43:50;;;;;;;11.13;9.98;;;6.80;99.90;;;;;;5004982;28;20377;-72
2022/10/20 05:46:16;;;;;;;12.18;9.98;;;6.80;99.90;;;;;;5005532;28;20028;-72
2022/10/20 05:48:42;;;;;;;11.40;10.18;;;6.80;99.90;;;;;;4998620;28;20030;-72
2022/10/20 05:51:09;;;;;;;10.48;9.45;;;6.80;99.90;;;;;;4999860;28;20026;-72
2022/10/20 05:53:35;;;;;;;12.02;10.23;;;6.80;99.90;;;;;;5004982;28;20022;-72
2022/10/20 05:56:08;;;;;;;13.63;10.38;;;6.80;99.90;;;;;;5005570;28;20026;-72
2022/10/20 05:58:34;;;;;;;12.85;9.93;;;6.80;99.90;;;;;;4987107;28;20029;-72
2022/10/20 06:01:22;;;;;;;11.95;9.75;;;6.80;99.90;;;;;;4999275;28;20023;-73
2022/10/20 06:03:53;;;;;;;11.13;10.02;;;6.80;99.90;;;;;;5001289;28;20033;-72
2022/10/20 06:06:21;;;;;;;11.60;9.48;;;6.80;99.90;;;;;;5005960;28;20100;-71
2022/10/20 06:08:47;;;;;;;11.30;10.10;;;6.80;99.90;;;;;;5027453;28;20507;-72
2022/10/20 06:11:14;;;;;;;12.05;9.95;;;6.80;99.90;;;;;;4994759;28;20030;-72
2022/10/20 06:13:40;;;;;;;13.48;9.88;;;6.90;99.90;;;;;;4992254;28;20481;-73
2022/10/20 06:16:07;;;;;;;13.18;10.38;;;6.90;99.90;;;;;;4997925;28;20365;-72
2022/10/20 06:18:34;;;;;;;11.35;10.15;;;7.00;99.90;;;;;;4998998;28;20393;-74
2022/10/20 06:21:10;;;;;;;12.45;9.90;;;7.00;99.90;;;;;;5034280;23;20135;-75
2022/10/20 06:23:36;;;;;;;13.05;10.23;;;7.00;99.90;;;;;;5024337;28;20022;-75
2022/10/20 06:26:06;;;;;;;11.40;9.55;;;7.00;99.90;;;;;;5024728;28;20029;-75
2022/10/20 06:28:33;;;;;;;11.93;10.15;;;7.00;99.90;;;;;;5023860;28;20199;-76
2022/10/20 06:30:59;;;;;;;11.70;9.73;;;7.10;99.90;;;;;;5019984;28;20026;-76
2022/10/20 06:33:28;;;;;;;10.57;9.48;;;7.10;99.90;;;;;;5018837;28;20105;-75
2022/10/20 06:35:59;;;;;;;11.00;9.88;;;7.20;99.90;;;;;;5024096;28;20033;-75
2022/10/20 06:38:24;;;;;;;11.57;9.40;;;7.20;99.90;;;;;;5025144;28;20018;-75
2022/10/20 06:40:50;;;;;;;9.57;8.40;;;7.30;99.90;;;;;;5020704;28;20445;-75
2022/10/20 06:43:15;;;;;;;10.77;9.52;;;7.40;99.90;;;;;;5031775;28;20510;-76
2022/10/20 06:45:41;;;;;;;13.40;9.90;;;7.40;99.90;;;;;;5031740;28;20029;-75
2022/10/20 06:48:06;;;;;;;11.75;9.95;;;7.50;99.90;;;;;;5018267;28;20034;-75
2022/10/20 06:50:33;;;;;;;10.60;9.50;;;7.50;99.90;;;;;;5023428;28;20032;-75
2022/10/20 06:52:59;;;;;;;11.80;10.00;;;7.60;99.90;;;;;;5025356;28;20026;-75
2022/10/20 06:55:24;;;;;;;10.77;9.68;;;7.70;99.90;;;;;;5020111;28;20034;-75
2022/10/20 06:57:50;;;;;;;11.93;10.07;;;7.80;99.90;;;;;;5028739;28;20030;-75
2022/10/20 07:00:15;;;;;;;10.40;9.38;;;7.90;99.90;;;;;;5012037;28;20065;-76
2022/10/20 07:02:41;;;;;;;10.50;9.35;;;7.90;99.90;;;;;;5025014;28;20057;-76
2022/10/20 07:05:07;;;;;;;12.25;9.68;;;7.90;99.90;;;;;;5018266;28;20112;-74
2022/10/20 07:07:32;;;;;;;10.82;9.27;;;8.00;99.90;;;;;;5029932;28;20025;-74
2022/10/20 07:09:58;;;;;;;11.55;9.50;;;8.00;99.90;;;;;;5019486;28;20071;-75
2022/10/20 07:12:23;;;;;;;10.18;9.05;;;8.10;99.90;;;;;;5018210;28;20026;-75
2022/10/20 07:14:49;;;;;;;12.05;9.50;;;8.20;99.90;;;;;;5023026;28;20079;-74
2022/10/20 07:17:14;;;;;;;10.13;9.10;;;8.20;99.90;;;;;;5023723;28;20028;-75
2022/10/20 07:19:40;;;;;;;16.00;9.88;;;8.20;99.90;;;;;;5011673;28;20420;-75
2022/10/20 07:22:05;;;;;;;10.25;9.18;;;8.30;99.90;;;;;;5025124;28;20533;-75
2022/10/20 07:24:31;;;;;;;12.25;9.43;;;8.30;99.90;;;;;;5024735;28;20125;-76
2022/10/20 07:26:56;;;;;;;12.75;8.68;;;8.20;99.90;;;;;;5023436;28;20053;-76
2022/10/20 07:29:22;;;;;;;10.10;9.10;;;8.30;99.90;;;;;;5016674;28;20037;-74
2022/10/20 07:31:47;;;;;;;16.02;9.15;;;8.40;99.90;;;;;;5018482;28;20077;-75
2022/10/20 07:34:15;;;;;;;9.23;8.32;;;8.50;99.90;;;;;;5011449;28;20026;-75
2022/10/20 07:36:43;;;;;;;10.48;9.38;;;8.60;99.90;;;;;;5011630;28;20040;-75
2022/10/20 07:39:11;;;;;;;11.70;9.32;;;8.70;99.90;;;;;;5028148;28;20022;-75
2022/10/20 07:41:38;;;;;;;9.98;8.40;;;8.80;99.90;;;;;;5013863;28;20034;-75
2022/10/20 07:44:04;;;;;;;9.73;8.68;;;8.90;99.90;;;;;;5020865;28;20021;-76
2022/10/20 07:46:30;;;;;;;10.35;9.15;;;8.90;99.90;;;;;;5021584;28;20064;-75
2022/10/20 07:48:56;;;;;;;12.07;8.88;;;8.90;99.90;;;;;;5027524;28;20026;-76
2022/10/20 07:51:24;;;;;;;12.68;8.65;;;8.90;99.90;;;;;;5027070;28;20013;-76
2022/10/20 07:53:58;;;;;;;10.48;9.32;;;8.90;99.90;;;;;;5015128;28;20048;-76
2022/10/20 07:56:25;;;;;;;10.15;8.68;;;8.90;99.90;;;;;;5028329;28;20021;-75
2022/10/20 07:58:51;;;;;;;10.30;9.13;;;9.00;99.90;;;;;;5023162;28;20467;-75
2022/10/20 08:01:17;;;;;;;11.05;8.98;;;8.90;99.90;;;;;;5030419;28;20037;-75
2022/10/20 08:03:42;;;;;;;10.35;8.90;;;9.00;99.90;;;;;;5020051;28;20053;-76
2022/10/20 08:06:08;;;;;;;10.90;9.10;;;9.10;99.90;;;;;;5028116;28;20029;-76
2022/10/20 08:08:33;;;;;;;10.05;8.57;;;9.20;99.90;;;;;;5024086;28;20022;-76
2022/10/20 08:10:59;;;;;;;10.75;8.75;;;9.30;99.90;;;;;;5019837;28;20109;-75
2022/10/20 08:13:26;;;;;;;12.13;8.90;;;9.40;99.90;;;;;;5025292;28;20486;-75
2022/10/20 08:15:52;;;;;;;10.27;8.18;;;9.60;99.90;;;;;;5026729;28;20022;-76
2022/10/20 08:18:17;;;;;;;10.70;8.93;;;9.70;99.90;;;;;;5017570;28;20030;-76
2022/10/20 08:20:44;;;;;;;11.20;9.15;;;9.70;99.90;;;;;;5026191;28;20395;-75
2022/10/20 08:23:11;;;;;;;10.05;8.38;;;9.80;99.90;;;;;;5023374;28;20113;-76
2022/10/20 08:25:36;;;;;;;9.75;8.15;;;9.80;99.90;;;;;;5020891;28;20030;-75
2022/10/20 08:28:02;;;;;;;11.50;8.68;;;9.90;99.90;;;;;;5025073;28;20490;-76
2022/10/20 08:30:28;;;;;;;9.82;8.75;;;10.00;99.90;;;;;;5027558;28;20020;-76
2022/10/20 08:32:54;;;;;;;10.40;8.88;;;10.10;99.90;;;;;;5021960;28;20017;-76
2022/10/20 08:35:20;;;;;;;9.90;8.18;;;10.00;99.90;;;;;;5020758;28;20117;-75
2022/10/20 08:37:46;;;;;;;10.55;8.70;;;10.00;99.90;;;;;;5030174;28;20067;-75
2022/10/20 08:40:30;;;;;;;9.00;8.05;;;10.10;99.90;;;;;;5029188;28;20402;-75
2022/10/20 08:42:56;;;;;;;10.32;7.90;;;10.20;99.90;;;;;;5022558;28;20053;-75
2022/10/20 08:45:25;;;;;;;9.27;7.93;;;10.40;99.90;;;;;;5019002;28;20112;-75
2022/10/20 08:47:57;;;;;;;11.02;8.20;;;10.40;99.90;;;;;;5020366;28;20033;-76
2022/10/20 08:50:27;;;;;;;10.23;8.15;;;10.40;99.90;;;;;;5027123;28;20104;-76
2022/10/20 08:52:59;;;;;;;10.75;8.25;;;10.50;99.90;;;;;;5017410;28;20018;-76
2022/10/20 08:55:32;;;;;;;10.55;8.00;;;10.50;99.90;;;;;;5018769;28;20025;-77
2022/10/20 08:58:11;;;;;;;10.73;8.35;;;10.70;99.90;;;;;;5016602;28;20037;-77
2022/10/20 09:00:37;;;;;;;8.50;7.50;;;10.80;99.90;;;;;;5011145;28;20030;-76
2022/10/20 09:03:31;;;;;;;10.30;7.82;;;10.90;99.90;;;;;;5030077;28;20033;-76
2022/10/20 09:06:07;;;;;;;8.55;7.65;;;10.90;99.90;;;;;;5016466;28;20136;-76
2022/10/20 09:08:36;;;;;;;9.52;8.13;;;11.10;99.90;;;;;;5021476;28;20079;-76
2022/10/20 09:11:03;;;;;;;8.57;7.28;;;11.00;99.90;;;;;;5019993;28;20037;-76
2022/10/20 09:13:31;;;;;;;8.80;7.15;;;11.20;99.90;;;;;;5022173;28;20022;-77
2022/10/20 09:16:04;;;;;;;8.48;7.10;;;11.20;99.90;;;;;;5016964;28;20074;-76
2022/10/20 09:18:31;;;;;;;8.80;6.57;;;11.30;99.90;;;;;;5020468;28;20510;-75
2022/10/20 09:21:02;;;;;;;7.45;6.65;;;11.40;99.90;;;;;;5025325;28;20045;-76
2022/10/20 09:23:38;;;;;;;12.77;6.57;;;11.50;99.90;;;;;;5025243;28;20033;-75
2022/10/20 09:26:09;;;;;;;10.55;6.80;;;11.60;99.90;;;;;;5007066;28;20113;-76
2022/10/20 09:28:35;;;;;;;10.50;6.68;;;11.60;99.90;;;;;;5018585;28;20029;-75
2022/10/20 09:31:00;;;;;;;8.88;6.50;;;11.80;99.90;;;;;;5025352;28;20022;-75
2022/10/20 09:33:29;;;;;;;7.88;6.40;;;11.90;99.90;;;;;;5013824;28;20091;-75
2022/10/20 09:36:01;;;;;;;7.60;6.72;;;11.80;99.90;;;;;;5023635;28;20018;-76
2022/10/20 09:38:28;;;;;;;6.70;6.00;;;12.00;99.90;;;;;;5026258;28;20041;-76
2022/10/20 09:41:18;;;;;;;7.30;5.90;;;12.10;99.90;;;;;;5016179;28;20021;-75
2022/10/20 09:44:04;;;;;;;9.57;6.00;;;12.30;99.90;;;;;;5024557;28;20022;-74
2022/10/20 09:46:52;;;;;;;6.43;5.57;;;12.50;99.90;;;;;;5018550;28;20038;-75
2022/10/20 09:49:26;;;;;;;7.10;6.15;;;12.50;99.90;;;;;;5011100;28;20480;-75
2022/10/20 09:51:52;;;;;;;7.07;5.55;;;12.50;99.90;;;;;;5023842;28;20033;-76
2022/10/20 09:54:19;;;;;;;6.75;5.55;;;12.60;99.90;;;;;;5032408;28;20422;-75
2022/10/20 09:56:48;;;;;;;8.05;5.85;;;12.70;99.90;;;;;;5019022;28;20029;-75
2022/10/20 09:59:35;;;;;;;5.88;5.38;;;12.80;99.90;;;;;;5019820;28;20088;-74
2022/10/20 10:02:28;;;;;;;7.60;5.30;;;12.90;99.90;;;;;;5010657;28;20053;-74
2022/10/20 10:05:17;;;;;;;8.70;5.40;;;12.80;99.90;;;;;;5012978;28;20487;-75
2022/10/20 10:07:43;;;;;;;7.25;5.40;;;12.90;99.90;;;;;;5013728;28;20048;-75
2022/10/20 10:10:18;;;;;;;5.55;5.05;;;13.00;99.90;;;;;;5021735;28;20475;-75
2022/10/20 10:12:51;;;;;;;5.60;4.90;;;13.10;99.90;;;;;;5025916;28;20307;-76
2022/10/20 10:15:27;;;;;;;5.60;4.70;;;13.20;99.90;;;;;;5023712;28;20379;-76
2022/10/20 10:17:54;;;;;;;8.07;5.13;;;13.10;99.90;;;;;;5018924;28;20057;-76
2022/10/20 10:20:33;;;;;;;6.45;5.25;;;13.10;99.90;;;;;;5019039;28;20041;-76
2022/10/20 10:23:22;;;;;;;5.40;4.57;;;13.00;99.90;;;;;;5020768;28;20037;-75
2022/10/20 10:25:49;;;;;;;5.97;4.70;;;13.10;99.90;;;;;;5016959;28;20048;-76
2022/10/20 10:28:30;;;;;;;6.28;4.60;;;13.30;99.90;;;;;;5020406;28;20033;-75
2022/10/20 10:31:07;;;;;;;5.88;3.97;;;13.20;99.90;;;;;;5006312;28;20498;-75
2022/10/20 10:33:32;;;;;;;5.15;4.35;;;13.30;99.90;;;;;;5031583;28;20083;-75
2022/10/20 10:36:02;;;;;;;5.38;4.03;;;13.40;99.90;;;;;;5023680;28;20033;-75
2022/10/20 10:38:28;;;;;;;9.02;4.57;;;13.60;99.90;;;;;;5025993;28;20025;-75
2022/10/20 10:41:08;;;;;;;5.35;4.57;;;13.60;99.90;;;;;;5021723;28;20022;-76
2022/10/20 10:44:00;;;;;;;5.63;3.63;;;13.60;99.90;;;;;;5028876;28;20032;-76
2022/10/20 10:46:30;;;;;;;5.57;4.07;;;13.70;99.90;;;;;;5009082;28;20088;-76
2022/10/20 10:49:28;;;;;;;4.97;3.88;;;13.80;99.90;;;;;;5011165;28;20050;-76
2022/10/20 10:52:18;;;;;;;6.35;3.95;;;13.80;99.90;;;;;;5028916;28;20022;-76
2022/10/20 10:55:14;;;;;;;6.00;4.05;;;13.80;99.90;;;;;;5025502;28;20047;-76
2022/10/20 10:57:53;;;;;;;4.65;3.95;;;13.80;99.90;;;;;;5017039;28;20037;-76
2022/10/20 11:00:38;;;;;;;5.60;3.53;;;13.80;99.90;;;;;;4999131;28;20031;-75
2022/10/20 11:03:34;;;;;;;5.28;3.60;;;14.00;99.90;;;;;;5014899;28;20361;-75
2022/10/20 11:06:20;;;;;;;5.60;4.13;;;14.00;99.90;;;;;;5030088;28;20491;-76
2022/10/20 11:09:13;;;;;;;5.82;3.53;;;14.10;99.90;;;;;;5021356;28;20068;-77
2022/10/20 11:12:22;;;;;;;3.83;3.42;;;14.10;99.90;;;;;;5009526;28;20021;-75
2022/10/20 11:15:25;;;;;;;4.70;3.72;;;14.40;99.90;;;;;;5010824;28;20022;-75
2022/10/20 11:18:02;;;;;;;5.55;3.47;;;14.50;99.90;;;;;;5029621;28;20029;-75
2022/10/20 11:20:42;;;;;;;6.72;4.10;;;14.40;99.90;;;;;;5014187;28;20033;-76
2022/10/20 11:23:19;;;;;;;6.07;3.75;;;14.40;99.90;;;;;;5015668;28;20044;-74
2022/10/20 11:25:53;;;;;;;5.60;3.50;;;14.50;99.90;;;;;;5032793;28;20032;-75
2022/10/20 11:28:34;;;;;;;5.68;3.45;;;14.70;99.90;;;;;;5023462;28;20515;-74
2022/10/20 11:30:59;;;;;;;6.72;3.90;;;14.90;99.90;;;;;;5024125;28;20063;-74
2022/10/20 11:33:44;;;;;;;6.10;3.40;;;14.90;99.90;;;;;;5027282;28;20053;-74
2022/10/20 11:36:15;;;;;;;4.78;3.42;;;15.10;99.90;;;;;;5017261;28;20112;-76
2022/10/20 11:38:55;;;;;;;4.47;3.83;;;15.30;99.90;;;;;;5031896;28;20057;-75
2022/10/20 11:41:35;;;;;;;4.47;3.75;;;15.60;99.90;;;;;;5021663;28;20444;-75
2022/10/20 11:44:18;;;;;;;4.18;3.47;;;15.80;99.90;;;;;;4995620;28;20022;-76
2022/10/20 11:46:56;;;;;;;5.35;3.47;;;16.30;99.90;;;;;;5019162;28;20037;-75
2022/10/20 11:49:23;;;;;;;4.78;4.18;;;16.50;99.90;;;;;;5020603;28;20025;-75
2022/10/20 11:51:59;;;;;;;4.70;3.90;;;16.50;99.90;;;;;;5021186;28;20131;-75
2022/10/20 11:55:15;;;;;;;4.25;3.22;;;16.50;99.90;;;;;;5034813;28;20099;-75
2022/10/20 11:58:09;;;;;;;4.70;3.40;;;17.10;99.90;;;;;;4992714;28;20057;-75
2022/10/20 12:00:48;;;;;;;5.68;3.30;;;17.10;99.90;;;;;;4964960;28;20035;-76
2022/10/20 12:03:38;;;;;;;3.47;3.15;;;16.70;99.90;;;;;;5010108;28;20040;-75
2022/10/20 12:06:23;;;;;;;5.03;3.60;;;16.50;99.90;;;;;;5021456;28;20030;-76
2022/10/20 12:09:03;;;;;;;4.78;3.28;;;16.20;99.90;;;;;;5034481;28;20024;-76
2022/10/20 12:11:39;;;;;;;3.45;3.10;;;16.20;99.90;;;;;;5025783;28;20022;-75
2022/10/20 12:14:18;;;;;;;4.60;3.38;;;16.30;99.90;;;;;;5016976;28;20025;-75
2022/10/20 12:16:52;;;;;;;4.85;3.70;;;16.30;99.90;;;;;;5024914;28;20029;-76
2022/10/20 12:19:25;;;;;;;6.93;3.92;;;16.50;99.90;;;;;;5021244;28;20029;-75
2022/10/20 12:21:54;;;;;;;4.57;3.03;;;16.40;99.90;;;;;;5023180;28;20030;-75
2022/10/20 12:24:38;;;;;;;4.45;3.83;;;16.40;99.90;;;;;;5027076;28;20443;-75
2022/10/20 12:27:06;;;;;;;6.25;3.88;;;16.30;99.90;;;;;;5027429;28;20134;-75
2022/10/20 12:29:31;;;;;;;4.38;3.30;;;16.30;99.90;;;;;;5013860;28;21260;-75
2022/10/20 12:32:28;;;;;;;5.93;4.20;;;16.60;99.90;;;;;;5016578;28;20022;-75
2022/10/20 12:34:55;;;;;;;4.18;3.60;;;16.70;99.90;;;;;;5019727;28;20510;-75
2022/10/20 12:37:25;;;;;;;5.90;3.90;;;16.80;99.90;;;;;;5025930;28;20060;-75
2022/10/20 12:39:54;;;;;;;5.90;3.50;;;16.90;99.90;;;;;;5026320;28;20112;-76
2022/10/20 12:42:28;;;;;;;4.32;3.00;;;16.90;99.90;;;;;;5021479;28;20052;-74
2022/10/20 12:45:03;;;;;;;5.68;3.30;;;16.80;99.90;;;;;;5031888;28;20060;-75
2022/10/20 12:47:31;;;;;;;10.93;3.80;;;16.90;99.90;;;;;;5013912;28;20046;-75
2022/10/20 12:50:18;;;;;;;4.90;4.03;;;16.60;99.90;;;;;;5016611;28;20079;-75
2022/10/20 12:52:45;;;;;;;5.72;4.20;;;16.60;99.90;;;;;;5020283;28;20018;-76
2022/10/20 12:55:26;;;;;;;5.35;4.63;;;16.40;99.90;;;;;;5026624;28;20116;-75
2022/10/20 12:58:18;;;;;;;6.93;3.70;;;16.50;99.90;;;;;;5026634;28;20026;-75
2022/10/20 13:00:46;;;;;;;6.22;4.97;;;16.40;99.90;;;;;;5013298;28;20026;-74
2022/10/20 13:03:30;;;;;;;7.47;4.40;;;16.30;99.90;;;;;;5022982;28;20030;-74
2022/10/20 13:05:59;;;;;;;4.45;4.03;;;16.10;99.90;;;;;;5019899;28;20026;-75